createdAt,value
2019-01-18T00:04:25.342Z,19.44
2019-01-18T00:09:33.221Z,19.83
2019-01-18T00:14:40.917Z,17.75
2019-01-18T00:19:48.635Z,20.20
2019-01-18T00:24:56.356Z,20.60
2019-01-18T00:30:04.134Z,18.70
2019-01-18T00:35:11.873Z,18.92
2019-01-18T00:40:19.766Z,18.42
2019-01-18T00:45:27.426Z,17.83
2019-01-18T00:50:35.177Z,22.43
2019-01-18T00:55:42.887Z,22.15
2019-01-18T01:00:50.607Z,19.07
2019-01-18T01:05:58.272Z,19.48
2019-01-18T01:11:06.066Z,27.44
2019-01-18T01:16:13.812Z,21.57
2019-01-18T01:21:21.657Z,21.12
2019-01-18T01:26:29.373Z,20.25
2019-01-18T01:31:37.104Z,23.11
2019-01-18T01:36:44.807Z,21.11
2019-01-18T01:41:52.670Z,20.39
2019-01-18T01:47:00.475Z,18.69
2019-01-18T01:52:08.218Z,23.48
2019-01-18T01:57:15.910Z,29.99
2019-01-18T02:02:23.669Z,26.35
2019-01-18T02:07:31.295Z,21.98
2019-01-18T02:12:39.134Z,21.83
2019-01-18T02:17:46.822Z,22.72
2019-01-18T02:22:54.615Z,26.22
2019-01-18T02:28:02.336Z,26.27
2019-01-18T02:33:10.046Z,23.42
2019-01-18T02:38:17.774Z,26.35
2019-01-18T02:43:25.651Z,22.73
2019-01-18T02:48:33.354Z,22.97
2019-01-18T02:53:41.127Z,32.04
2019-01-18T02:58:48.855Z,29.78
2019-01-18T03:03:56.630Z,21.89
2019-01-18T03:09:04.346Z,20.20
2019-01-18T03:14:12.171Z,21.44
2019-01-18T03:19:19.929Z,18.53
2019-01-18T03:24:27.569Z,18.09
2019-01-18T03:29:35.303Z,19.65
2019-01-18T03:34:43.142Z,16.42
2019-01-18T03:39:50.875Z,17.56
2019-01-18T03:44:58.664Z,20.48
2019-01-18T03:50:06.390Z,22.34
2019-01-18T03:55:14.208Z,21.74
2019-01-18T04:00:26.374Z,22.16
2019-01-18T04:05:29.085Z,23.04
2019-01-18T04:10:36.774Z,25.25
2019-01-18T04:15:44.646Z,21.55
2019-01-18T04:20:52.357Z,20.35
2019-01-18T04:26:00.194Z,20.17
2019-01-18T04:31:07.905Z,33.64
2019-01-18T04:36:15.593Z,36.48
2019-01-18T04:41:23.262Z,37.44
2019-01-18T04:46:31.049Z,23.56
2019-01-18T04:51:38.734Z,34.25
2019-01-18T04:56:46.468Z,24.02
2019-01-18T05:01:54.174Z,37.89
2019-01-18T05:07:01.989Z,38.15
2019-01-18T05:12:09.657Z,24.39
2019-01-18T05:17:17.457Z,24.05
2019-01-18T05:22:25.177Z,26.19
2019-01-18T05:27:33.067Z,29.10
2019-01-18T05:32:40.764Z,26.37
2019-01-18T05:37:48.562Z,45.76
2019-01-18T05:42:56.215Z,47.93
2019-01-18T05:48:04.059Z,37.06
2019-01-18T05:53:11.756Z,36.04
2019-01-18T05:58:19.642Z,36.68
2019-01-18T06:03:27.332Z,43.54
2019-01-18T06:08:35.144Z,50.03
2019-01-18T06:13:42.816Z,83.25
2019-01-18T06:18:50.546Z,75.74
2019-01-18T06:23:58.203Z,95.88
2019-01-18T06:29:05.972Z,63.36
2019-01-18T06:34:13.691Z,69.99
2019-01-18T06:39:21.478Z,49.85
2019-01-18T06:44:29.159Z,46.57
2019-01-18T06:49:36.994Z,48.71
2019-01-18T06:54:44.695Z,47.60
2019-01-18T06:59:52.579Z,51.13
2019-01-18T07:05:00.318Z,54.92
2019-01-18T07:10:08.078Z,61.94
2019-01-18T07:15:15.839Z,52.09
2019-01-18T07:20:23.546Z,49.90
2019-01-18T07:25:31.214Z,61.10
2019-01-18T07:30:39.101Z,40.18
2019-01-18T07:35:46.803Z,38.25
2019-01-18T07:40:54.708Z,36.58
2019-01-18T07:46:02.414Z,34.92
2019-01-18T07:51:10.185Z,51.53
2019-01-18T07:56:17.928Z,51.31
2019-01-18T08:01:25.862Z,36.45
2019-01-18T08:06:33.612Z,36.23
2019-01-18T08:11:41.300Z,36.65
2019-01-18T08:16:49.055Z,36.55
2019-01-18T08:21:56.870Z,33.29
2019-01-18T08:27:04.549Z,37.10
2019-01-18T08:32:12.300Z,34.60
2019-01-18T08:37:19.958Z,34.01
2019-01-18T08:42:27.703Z,35.10
2019-01-18T08:47:35.400Z,32.10
2019-01-18T08:52:43.264Z,35.52
2019-01-18T08:57:50.908Z,33.24
2019-01-18T09:02:58.602Z,34.57
2019-01-18T09:08:06.792Z,43.33
2019-01-18T09:13:14.547Z,43.63
2019-01-18T09:18:22.246Z,32.66
2019-01-18T09:23:30.089Z,33.41
2019-01-18T09:28:37.887Z,41.00
2019-01-18T09:33:45.641Z,44.03
2019-01-18T09:38:54.549Z,35.27
2019-01-18T09:44:02.320Z,46.85
2019-01-18T09:49:10.039Z,39.25
2019-01-18T09:54:17.774Z,37.90
2019-01-18T09:59:25.440Z,54.01
2019-01-18T10:04:33.302Z,42.72
2019-01-18T10:09:40.999Z,43.83
2019-01-18T10:14:48.732Z,44.09
2019-01-18T10:19:56.417Z,61.69
2019-01-18T10:25:04.144Z,67.72
2019-01-18T10:30:11.893Z,45.86
2019-01-18T10:35:19.635Z,51.53
2019-01-18T10:40:27.288Z,48.55
2019-01-18T10:45:35.137Z,67.35
2019-01-18T10:50:42.803Z,61.84
2019-01-18T10:55:50.744Z,48.12
2019-01-18T11:00:58.437Z,53.84
2019-01-18T11:06:06.177Z,57.04
2019-01-18T11:11:13.898Z,58.70
2019-01-18T11:16:21.621Z,51.82
2019-01-18T11:21:29.278Z,49.17
2019-01-18T11:26:37.089Z,50.56
2019-01-18T11:31:44.827Z,54.02
2019-01-18T11:36:56.437Z,70.70
2019-01-18T11:41:59.905Z,69.26
2019-01-18T11:47:07.718Z,52.87
2019-01-18T11:52:15.430Z,51.18
2019-01-18T11:57:23.348Z,50.60
2019-01-18T12:02:31.014Z,50.30
2019-01-18T12:07:38.834Z,68.94
2019-01-18T12:12:46.535Z,57.61
2019-01-18T12:17:54.381Z,73.29
2019-01-18T12:23:02.086Z,58.25
2019-01-18T12:28:09.922Z,58.53
2019-01-18T12:33:17.597Z,52.58
2019-01-18T12:38:25.357Z,62.40
2019-01-18T12:43:33.066Z,50.46
2019-01-18T12:48:40.821Z,46.90
2019-01-18T12:53:48.524Z,46.18
2019-01-18T12:58:56.712Z,43.84
2019-01-18T13:04:03.476Z,46.94
2019-01-18T13:09:11.266Z,42.31
2019-01-18T13:14:18.967Z,39.65
2019-01-18T13:19:26.766Z,30.52
2019-01-18T13:24:34.470Z,27.68
2019-01-18T13:29:42.182Z,27.86
2019-01-18T13:34:49.882Z,25.40
2019-01-18T13:39:57.592Z,23.04
2019-01-18T13:45:05.300Z,19.31
2019-01-18T13:50:13.047Z,22.25
2019-01-18T13:55:20.833Z,23.53
2019-01-18T14:00:28.659Z,25.23
2019-01-18T14:05:36.484Z,28.24
2019-01-18T14:10:44.266Z,28.02
2019-01-18T14:15:51.970Z,25.42
2019-01-18T14:20:59.858Z,27.13
2019-01-18T14:26:07.559Z,24.98
2019-01-18T14:31:15.257Z,27.78
2019-01-18T14:36:22.983Z,31.65
2019-01-18T14:42:42.998Z,31.50
2019-01-18T14:47:40.584Z,32.04
2019-01-18T14:52:48.362Z,34.22
2019-01-18T14:57:56.113Z,30.60
2019-01-18T15:03:04.656Z,34.07
2019-01-18T15:08:11.064Z,31.86
2019-01-18T15:13:18.999Z,34.06
2019-01-18T15:18:26.659Z,35.92
2019-01-18T15:23:34.437Z,40.15
2019-01-18T15:28:42.251Z,40.52
2019-01-18T15:33:49.968Z,39.54
2019-01-18T15:38:57.639Z,55.01
2019-01-18T15:44:05.323Z,42.23
2019-01-18T15:49:13.007Z,41.68
2019-01-18T15:54:20.730Z,48.67
2019-01-18T15:59:28.411Z,38.44
2019-01-18T16:04:36.144Z,34.24
2019-01-18T16:09:43.835Z,29.83
2019-01-18T16:14:51.645Z,26.52
2019-01-18T16:19:59.331Z,24.67
2019-01-18T16:25:07.197Z,23.73
2019-01-18T16:30:14.910Z,22.14
2019-01-18T16:35:22.697Z,20.79
2019-01-18T16:40:30.344Z,20.97
2019-01-18T16:45:38.164Z,20.33
2019-01-18T16:50:45.834Z,18.83
2019-01-18T16:55:53.536Z,18.55
2019-01-18T17:01:01.277Z,19.60
2019-01-18T17:06:09.087Z,18.84
2019-01-18T17:11:16.918Z,18.44
2019-01-18T17:16:24.721Z,20.80
2019-01-18T17:21:32.977Z,20.18
2019-01-18T17:26:40.731Z,19.81
2019-01-18T17:31:48.430Z,22.46
2019-01-18T17:36:56.238Z,18.55
2019-01-18T17:42:03.937Z,19.79
2019-01-18T17:47:11.662Z,20.13
2019-01-18T17:52:19.340Z,19.92
2019-01-18T17:57:27.140Z,19.93
2019-01-18T18:02:34.902Z,20.98
2019-01-18T18:07:42.837Z,20.02
2019-01-18T18:12:50.487Z,18.94
2019-01-18T18:17:58.225Z,20.10
2019-01-18T18:23:05.943Z,18.32
2019-01-18T18:28:13.658Z,21.05
2019-01-18T18:33:21.391Z,20.40
2019-01-18T18:38:29.162Z,18.97
2019-01-18T18:43:36.838Z,19.47
2019-01-18T18:48:44.680Z,19.93
2019-01-18T18:53:52.392Z,19.46
2019-01-18T18:59:00.145Z,20.72
2019-01-18T19:04:07.815Z,45.33
2019-01-18T19:09:15.577Z,17.55
2019-01-18T19:14:23.342Z,20.05
2019-01-18T19:19:31.090Z,17.77
2019-01-18T19:24:38.803Z,18.24
2019-01-18T19:29:46.548Z,15.20
2019-01-18T19:34:54.197Z,17.10
2019-01-18T19:40:02.080Z,16.54
2019-01-18T19:45:09.713Z,14.93
2019-01-18T19:50:17.534Z,15.76
2019-01-18T19:55:25.332Z,14.87
2019-01-18T20:00:33.129Z,15.19
2019-01-18T20:05:40.833Z,16.08
2019-01-18T20:10:48.590Z,16.02
2019-01-18T20:15:56.238Z,16.15
2019-01-18T20:21:04.008Z,18.54
2019-01-18T20:26:11.726Z,16.34
2019-01-18T20:31:19.425Z,15.51
2019-01-18T20:36:27.102Z,17.30
2019-01-18T20:41:35.014Z,14.86
2019-01-18T20:46:42.756Z,15.28
2019-01-18T20:51:50.580Z,15.44
2019-01-18T20:56:58.237Z,16.09
2019-01-18T21:02:06.157Z,15.87
2019-01-18T21:07:13.881Z,15.47
2019-01-18T21:12:21.640Z,16.38
2019-01-18T21:17:29.371Z,17.22
2019-01-18T21:22:37.123Z,16.16
2019-01-18T21:27:44.853Z,15.97
2019-01-18T21:32:52.626Z,16.52
2019-01-18T21:38:00.461Z,16.55
2019-01-18T21:43:08.907Z,15.41
2019-01-18T21:48:16.589Z,15.10
2019-01-18T21:53:24.379Z,16.19
2019-01-18T21:58:32.069Z,16.05
2019-01-18T22:03:39.944Z,15.50
2019-01-18T22:08:47.646Z,16.21
2019-01-18T22:13:55.383Z,19.01
2019-01-18T22:19:03.140Z,16.42
2019-01-18T22:24:10.936Z,17.72
2019-01-18T22:29:18.656Z,17.99
2019-01-18T22:34:26.547Z,18.39
2019-01-18T22:39:34.277Z,16.21
2019-01-18T22:44:42.028Z,17.48
2019-01-18T22:49:49.732Z,17.55
2019-01-18T22:54:57.470Z,18.63
2019-01-18T23:00:05.162Z,18.18
2019-01-18T23:05:12.959Z,18.78
2019-01-18T23:10:20.644Z,19.34
2019-01-18T23:15:28.425Z,17.60
2019-01-18T23:20:36.153Z,15.09
2019-01-18T23:25:44.018Z,16.48
2019-01-18T23:30:51.676Z,14.87
2019-01-18T23:35:59.432Z,15.36
2019-01-18T23:41:07.208Z,17.10
2019-01-18T23:46:15.073Z,18.64
2019-01-18T23:51:22.761Z,16.16
2019-01-18T23:56:30.538Z,16.88
